Terminal Aerodrome Forecast
Issued by NWS Louisville, KY

Home | Current Version | Previous Version | Text Only | Print | Product List | Glossary On
Versions: 1 2 3 4 5 6 7 8 9 10 11 12 13 14 15 16 17 18 19
088
FTUS43 KLMK 231738
TAFSDF
TAF
KSDF 231738Z 2318/2424 21012G20KT P6SM -SHRA SCT035 OVC045
     FM231900 21007KT 3SM +SHRA VCTS OVC035CB
      TEMPO 2320/2323 1SM +SHRA OVC025
     FM240000 29004KT 6SM -SHRA VCTS BKN030CB
     FM240300 30005KT P6SM BKN040=

USA.gov is the U.S. government's official web portal to all federal, state and local government web resources and services.